sensor_id;sensor_type;location;lat;lon;timestamp;P1;durP1;ratioP1;P2;durP2;ratioP2
28862;SDS011;15994;51.796;13.006;2022-09-27T00:01:21;1.80;;;0.90;;
28862;SDS011;15994;51.796;13.006;2022-09-27T00:03:48;1.80;;;1.00;;
28862;SDS011;15994;51.796;13.006;2022-09-27T00:06:21;3.65;;;0.90;;
28862;SDS011;15994;51.796;13.006;2022-09-27T00:08:49;2.95;;;0.88;;
28862;SDS011;15994;51.796;13.006;2022-09-27T00:11:19;1.55;;;0.80;;
28862;SDS011;15994;51.796;13.006;2022-09-27T00:13:51;4.03;;;1.10;;
28862;SDS011;15994;51.796;13.006;2022-09-27T00:16:19;2.28;;;1.10;;
28862;SDS011;15994;51.796;13.006;2022-09-27T00:18:46;4.18;;;0.90;;
28862;SDS011;15994;51.796;13.006;2022-09-27T00:21:13;3.00;;;0.93;;
28862;SDS011;15994;51.796;13.006;2022-09-27T00:23:39;4.93;;;1.00;;
28862;SDS011;15994;51.796;13.006;2022-09-27T00:26:07;1.67;;;1.00;;
28862;SDS011;15994;51.796;13.006;2022-09-27T00:28:36;4.20;;;0.93;;
28862;SDS011;15994;51.796;13.006;2022-09-27T00:31:02;1.38;;;0.80;;
28862;SDS011;15994;51.796;13.006;2022-09-27T00:33:29;1.95;;;0.93;;
28862;SDS011;15994;51.796;13.006;2022-09-27T00:36:02;1.15;;;0.70;;
28862;SDS011;15994;51.796;13.006;2022-09-27T00:38:30;2.72;;;0.98;;
28862;SDS011;15994;51.796;13.006;2022-09-27T00:40:57;2.03;;;0.80;;
28862;SDS011;15994;51.796;13.006;2022-09-27T00:43:24;2.08;;;1.10;;
28862;SDS011;15994;51.796;13.006;2022-09-27T00:45:54;2.15;;;1.00;;
28862;SDS011;15994;51.796;13.006;2022-09-27T00:48:26;3.75;;;1.15;;
28862;SDS011;15994;51.796;13.006;2022-09-27T00:50:57;2.38;;;0.93;;
28862;SDS011;15994;51.796;13.006;2022-09-27T00:56:02;1.30;;;0.80;;
28862;SDS011;15994;51.796;13.006;2022-09-27T00:58:42;2.22;;;1.00;;
28862;SDS011;15994;51.796;13.006;2022-09-27T01:01:13;4.03;;;1.00;;
28862;SDS011;15994;51.796;13.006;2022-09-27T01:03:43;1.92;;;1.10;;
28862;SDS011;15994;51.796;13.006;2022-09-27T01:06:17;2.75;;;0.95;;
28862;SDS011;15994;51.796;13.006;2022-09-27T01:08:45;1.80;;;0.90;;
28862;SDS011;15994;51.796;13.006;2022-09-27T01:14:01;1.88;;;1.00;;
28862;SDS011;15994;51.796;13.006;2022-09-27T01:16:40;1.30;;;0.80;;
28862;SDS011;15994;51.796;13.006;2022-09-27T01:30:20;2.90;;;1.00;;
28862;SDS011;15994;51.796;13.006;2022-09-27T01:33:06;2.50;;;1.08;;
28862;SDS011;15994;51.796;13.006;2022-09-27T01:38:17;3.17;;;0.90;;
28862;SDS011;15994;51.796;13.006;2022-09-27T01:40:55;3.47;;;1.15;;
28862;SDS011;15994;51.796;13.006;2022-09-27T01:43:25;2.20;;;0.90;;
28862;SDS011;15994;51.796;13.006;2022-09-27T01:48:41;2.13;;;1.00;;
28862;SDS011;15994;51.796;13.006;2022-09-27T01:51:19;2.28;;;1.02;;
28862;SDS011;15994;51.796;13.006;2022-09-27T01:53:51;1.52;;;1.02;;
28862;SDS011;15994;51.796;13.006;2022-09-27T01:56:23;1.60;;;1.08;;
28862;SDS011;15994;51.796;13.006;2022-09-27T01:59:07;2.38;;;1.15;;
28862;SDS011;15994;51.796;13.006;2022-09-27T02:01:37;2.33;;;1.08;;
28862;SDS011;15994;51.796;13.006;2022-09-27T02:04:07;4.13;;;1.25;;
28862;SDS011;15994;51.796;13.006;2022-09-27T02:06:39;3.38;;;1.42;;
28862;SDS011;15994;51.796;13.006;2022-09-27T02:09:21;2.97;;;1.20;;
28862;SDS011;15994;51.796;13.006;2022-09-27T02:11:54;2.38;;;1.30;;
28862;SDS011;15994;51.796;13.006;2022-09-27T02:20:12;2.53;;;1.35;;
28862;SDS011;15994;51.796;13.006;2022-09-27T02:22:47;3.97;;;1.33;;
28862;SDS011;15994;51.796;13.006;2022-09-27T02:25:25;2.88;;;1.05;;
28862;SDS011;15994;51.796;13.006;2022-09-27T02:28:26;2.33;;;1.38;;
28862;SDS011;15994;51.796;13.006;2022-09-27T02:31:13;3.80;;;1.27;;
28862;SDS011;15994;51.796;13.006;2022-09-27T02:36:12;3.65;;;1.50;;
28862;SDS011;15994;51.796;13.006;2022-09-27T02:38:39;3.10;;;1.50;;
28862;SDS011;15994;51.796;13.006;2022-09-27T02:41:17;4.68;;;1.73;;
28862;SDS011;15994;51.796;13.006;2022-09-27T02:43:46;3.67;;;1.33;;
28862;SDS011;15994;51.796;13.006;2022-09-27T02:51:50;3.17;;;1.50;;
28862;SDS011;15994;51.796;13.006;2022-09-27T02:54:44;2.35;;;1.33;;
28862;SDS011;15994;51.796;13.006;2022-09-27T02:57:47;2.63;;;1.48;;
28862;SDS011;15994;51.796;13.006;2022-09-27T03:00:38;5.68;;;1.40;;
28862;SDS011;15994;51.796;13.006;2022-09-27T03:03:16;3.40;;;1.50;;
28862;SDS011;15994;51.796;13.006;2022-09-27T03:05:53;4.55;;;1.40;;
28862;SDS011;15994;51.796;13.006;2022-09-27T03:08:26;3.17;;;1.50;;
28862;SDS011;15994;51.796;13.006;2022-09-27T03:10:52;3.22;;;1.40;;
28862;SDS011;15994;51.796;13.006;2022-09-27T03:13:19;3.13;;;1.55;;
28862;SDS011;15994;51.796;13.006;2022-09-27T03:15:45;3.17;;;1.30;;
28862;SDS011;15994;51.796;13.006;2022-09-27T03:18:12;2.42;;;1.08;;
28862;SDS011;15994;51.796;13.006;2022-09-27T03:20:38;2.75;;;1.50;;
28862;SDS011;15994;51.796;13.006;2022-09-27T03:23:05;5.90;;;1.83;;
28862;SDS011;15994;51.796;13.006;2022-09-27T03:25:31;2.13;;;1.50;;
28862;SDS011;15994;51.796;13.006;2022-09-27T03:27:58;3.25;;;1.42;;
28862;SDS011;15994;51.796;13.006;2022-09-27T03:30:24;1.90;;;1.27;;
28862;SDS011;15994;51.796;13.006;2022-09-27T03:32:51;3.60;;;1.50;;
28862;SDS011;15994;51.796;13.006;2022-09-27T03:35:17;2.45;;;1.40;;
28862;SDS011;15994;51.796;13.006;2022-09-27T03:37:44;3.55;;;1.50;;
28862;SDS011;15994;51.796;13.006;2022-09-27T03:40:11;2.40;;;1.40;;
28862;SDS011;15994;51.796;13.006;2022-09-27T03:42:38;4.13;;;1.50;;
28862;SDS011;15994;51.796;13.006;2022-09-27T03:45:05;3.42;;;1.48;;
28862;SDS011;15994;51.796;13.006;2022-09-27T03:47:32;2.20;;;1.17;;
28862;SDS011;15994;51.796;13.006;2022-09-27T03:49:59;2.38;;;1.20;;
28862;SDS011;15994;51.796;13.006;2022-09-27T03:52:25;2.92;;;1.45;;
28862;SDS011;15994;51.796;13.006;2022-09-27T03:54:51;2.70;;;1.50;;
28862;SDS011;15994;51.796;13.006;2022-09-27T03:57:18;3.38;;;1.48;;
28862;SDS011;15994;51.796;13.006;2022-09-27T03:59:44;2.78;;;1.40;;
28862;SDS011;15994;51.796;13.006;2022-09-27T04:02:11;5.20;;;1.30;;
28862;SDS011;15994;51.796;13.006;2022-09-27T04:04:38;2.60;;;1.23;;
28862;SDS011;15994;51.796;13.006;2022-09-27T04:07:04;3.15;;;1.30;;
28862;SDS011;15994;51.796;13.006;2022-09-27T04:09:32;2.65;;;1.40;;
28862;SDS011;15994;51.796;13.006;2022-09-27T04:11:58;2.45;;;1.20;;
28862;SDS011;15994;51.796;13.006;2022-09-27T04:14:25;3.13;;;1.40;;
28862;SDS011;15994;51.796;13.006;2022-09-27T04:16:52;3.42;;;1.15;;
28862;SDS011;15994;51.796;13.006;2022-09-27T04:19:18;4.43;;;1.50;;
28862;SDS011;15994;51.796;13.006;2022-09-27T04:21:45;3.08;;;1.35;;
28862;SDS011;15994;51.796;13.006;2022-09-27T04:24:11;2.80;;;1.50;;
28862;SDS011;15994;51.796;13.006;2022-09-27T04:26:38;3.63;;;1.75;;
28862;SDS011;15994;51.796;13.006;2022-09-27T04:29:05;2.90;;;1.48;;
28862;SDS011;15994;51.796;13.006;2022-09-27T04:31:33;2.35;;;1.55;;
28862;SDS011;15994;51.796;13.006;2022-09-27T04:34:01;1.65;;;1.15;;
28862;SDS011;15994;51.796;13.006;2022-09-27T04:36:31;3.45;;;1.38;;
28862;SDS011;15994;51.796;13.006;2022-09-27T04:38:57;2.42;;;1.33;;
28862;SDS011;15994;51.796;13.006;2022-09-27T04:41:26;3.70;;;1.88;;
28862;SDS011;15994;51.796;13.006;2022-09-27T04:43:54;2.63;;;1.70;;
28862;SDS011;15994;51.796;13.006;2022-09-27T04:46:21;3.88;;;1.48;;
28862;SDS011;15994;51.796;13.006;2022-09-27T04:48:48;2.13;;;1.42;;
28862;SDS011;15994;51.796;13.006;2022-09-27T04:51:15;4.60;;;1.45;;
28862;SDS011;15994;51.796;13.006;2022-09-27T04:53:43;2.95;;;1.50;;
28862;SDS011;15994;51.796;13.006;2022-09-27T04:56:11;2.85;;;1.52;;
28862;SDS011;15994;51.796;13.006;2022-09-27T04:58:38;3.05;;;1.70;;
28862;SDS011;15994;51.796;13.006;2022-09-27T05:01:05;3.67;;;1.58;;
28862;SDS011;15994;51.796;13.006;2022-09-27T05:03:33;3.40;;;1.50;;
28862;SDS011;15994;51.796;13.006;2022-09-27T05:06:00;2.80;;;1.67;;
28862;SDS011;15994;51.796;13.006;2022-09-27T05:08:26;4.75;;;1.85;;
28862;SDS011;15994;51.796;13.006;2022-09-27T05:10:53;3.30;;;1.83;;
28862;SDS011;15994;51.796;13.006;2022-09-27T05:13:20;2.17;;;1.67;;
28862;SDS011;15994;51.796;13.006;2022-09-27T05:15:47;5.63;;;1.70;;
28862;SDS011;15994;51.796;13.006;2022-09-27T05:18:13;2.65;;;1.60;;
28862;SDS011;15994;51.796;13.006;2022-09-27T05:20:40;3.00;;;1.85;;
28862;SDS011;15994;51.796;13.006;2022-09-27T05:23:07;4.80;;;1.73;;
28862;SDS011;15994;51.796;13.006;2022-09-27T05:25:34;3.00;;;1.92;;
28862;SDS011;15994;51.796;13.006;2022-09-27T05:28:00;4.75;;;1.75;;
28862;SDS011;15994;51.796;13.006;2022-09-27T05:30:27;2.78;;;1.85;;
28862;SDS011;15994;51.796;13.006;2022-09-27T05:32:54;3.40;;;1.70;;
28862;SDS011;15994;51.796;13.006;2022-09-27T05:35:20;3.67;;;1.70;;
28862;SDS011;15994;51.796;13.006;2022-09-27T05:37:51;4.43;;;1.80;;
28862;SDS011;15994;51.796;13.006;2022-09-27T05:40:21;3.22;;;1.85;;
28862;SDS011;15994;51.796;13.006;2022-09-27T05:42:50;3.58;;;1.85;;
28862;SDS011;15994;51.796;13.006;2022-09-27T05:45:17;2.40;;;1.70;;
28862;SDS011;15994;51.796;13.006;2022-09-27T05:47:51;3.63;;;1.77;;
28862;SDS011;15994;51.796;13.006;2022-09-27T05:50:19;2.63;;;1.70;;
28862;SDS011;15994;51.796;13.006;2022-09-27T05:52:46;2.50;;;1.58;;
28862;SDS011;15994;51.796;13.006;2022-09-27T05:55:13;2.45;;;1.23;;
28862;SDS011;15994;51.796;13.006;2022-09-27T05:57:40;2.78;;;1.55;;
28862;SDS011;15994;51.796;13.006;2022-09-27T06:00:07;3.67;;;1.60;;
28862;SDS011;15994;51.796;13.006;2022-09-27T06:02:34;3.03;;;1.83;;
28862;SDS011;15994;51.796;13.006;2022-09-27T06:05:01;2.92;;;1.38;;
28862;SDS011;15994;51.796;13.006;2022-09-27T06:07:29;2.10;;;1.13;;
28862;SDS011;15994;51.796;13.006;2022-09-27T06:09:56;2.97;;;1.60;;
28862;SDS011;15994;51.796;13.006;2022-09-27T06:12:23;3.65;;;2.03;;
28862;SDS011;15994;51.796;13.006;2022-09-27T06:14:49;3.90;;;1.67;;
28862;SDS011;15994;51.796;13.006;2022-09-27T06:17:16;4.05;;;1.45;;
28862;SDS011;15994;51.796;13.006;2022-09-27T06:19:42;3.03;;;1.70;;
28862;SDS011;15994;51.796;13.006;2022-09-27T06:22:08;3.05;;;1.55;;
28862;SDS011;15994;51.796;13.006;2022-09-27T06:24:35;4.35;;;1.60;;
28862;SDS011;15994;51.796;13.006;2022-09-27T06:27:01;3.65;;;1.58;;
28862;SDS011;15994;51.796;13.006;2022-09-27T06:29:28;5.32;;;1.70;;
28862;SDS011;15994;51.796;13.006;2022-09-27T06:31:59;2.70;;;1.63;;
28862;SDS011;15994;51.796;13.006;2022-09-27T06:34:26;9.35;;;1.73;;
28862;SDS011;15994;51.796;13.006;2022-09-27T06:36:52;5.07;;;1.90;;
28862;SDS011;15994;51.796;13.006;2022-09-27T06:39:19;3.47;;;1.70;;
28862;SDS011;15994;51.796;13.006;2022-09-27T06:41:45;2.60;;;1.50;;
28862;SDS011;15994;51.796;13.006;2022-09-27T06:44:12;4.82;;;1.67;;
28862;SDS011;15994;51.796;13.006;2022-09-27T06:46:38;3.00;;;1.90;;
28862;SDS011;15994;51.796;13.006;2022-09-27T06:49:06;3.83;;;1.92;;
28862;SDS011;15994;51.796;13.006;2022-09-27T06:51:33;3.28;;;1.60;;
28862;SDS011;15994;51.796;13.006;2022-09-27T06:54:00;3.10;;;1.60;;
28862;SDS011;15994;51.796;13.006;2022-09-27T06:56:27;3.53;;;1.80;;
28862;SDS011;15994;51.796;13.006;2022-09-27T06:58:53;3.30;;;1.60;;
28862;SDS011;15994;51.796;13.006;2022-09-27T07:01:38;3.90;;;1.77;;
28862;SDS011;15994;51.796;13.006;2022-09-27T07:04:04;6.20;;;1.42;;
28862;SDS011;15994;51.796;13.006;2022-09-27T07:06:31;4.32;;;1.50;;
28862;SDS011;15994;51.796;13.006;2022-09-27T07:08:59;3.92;;;1.20;;
28862;SDS011;15994;51.796;13.006;2022-09-27T07:11:25;2.58;;;1.45;;
28862;SDS011;15994;51.796;13.006;2022-09-27T07:13:52;4.18;;;1.50;;
28862;SDS011;15994;51.796;13.006;2022-09-27T07:16:20;4.30;;;1.40;;
28862;SDS011;15994;51.796;13.006;2022-09-27T07:18:47;4.05;;;1.35;;
28862;SDS011;15994;51.796;13.006;2022-09-27T07:21:15;3.97;;;1.30;;
28862;SDS011;15994;51.796;13.006;2022-09-27T07:23:42;2.47;;;1.27;;
28862;SDS011;15994;51.796;13.006;2022-09-27T07:26:08;4.00;;;1.38;;
28862;SDS011;15994;51.796;13.006;2022-09-27T07:28:35;2.55;;;1.00;;
28862;SDS011;15994;51.796;13.006;2022-09-27T07:31:05;2.10;;;1.02;;
28862;SDS011;15994;51.796;13.006;2022-09-27T07:33:33;6.53;;;1.27;;
28862;SDS011;15994;51.796;13.006;2022-09-27T07:35:59;3.65;;;1.20;;
28862;SDS011;15994;51.796;13.006;2022-09-27T07:38:31;4.90;;;1.17;;
28862;SDS011;15994;51.796;13.006;2022-09-27T07:40:57;2.88;;;1.08;;
28862;SDS011;15994;51.796;13.006;2022-09-27T07:43:24;8.75;;;1.40;;
28862;SDS011;15994;51.796;13.006;2022-09-27T07:45:51;3.97;;;1.17;;
28862;SDS011;15994;51.796;13.006;2022-09-27T07:48:20;2.90;;;0.93;;
28862;SDS011;15994;51.796;13.006;2022-09-27T07:50:47;1.90;;;0.80;;
28862;SDS011;15994;51.796;13.006;2022-09-27T07:53:14;1.95;;;0.70;;
28862;SDS011;15994;51.796;13.006;2022-09-27T07:55:40;2.67;;;0.90;;
28862;SDS011;15994;51.796;13.006;2022-09-27T07:58:07;3.08;;;0.90;;
28862;SDS011;15994;51.796;13.006;2022-09-27T08:00:36;2.00;;;0.70;;
28862;SDS011;15994;51.796;13.006;2022-09-27T08:03:05;0.98;;;0.85;;
28862;SDS011;15994;51.796;13.006;2022-09-27T08:05:33;3.63;;;1.05;;
28862;SDS011;15994;51.796;13.006;2022-09-27T08:08:01;4.18;;;1.10;;
28862;SDS011;15994;51.796;13.006;2022-09-27T08:10:29;4.20;;;0.98;;
28862;SDS011;15994;51.796;13.006;2022-09-27T08:12:57;3.92;;;0.77;;
28862;SDS011;15994;51.796;13.006;2022-09-27T08:15:27;2.88;;;0.88;;
28862;SDS011;15994;51.796;13.006;2022-09-27T08:17:54;6.68;;;1.02;;
28862;SDS011;15994;51.796;13.006;2022-09-27T08:20:20;7.88;;;1.45;;
28862;SDS011;15994;51.796;13.006;2022-09-27T08:22:47;4.25;;;0.95;;
28862;SDS011;15994;51.796;13.006;2022-09-27T08:25:14;3.80;;;1.10;;
28862;SDS011;15994;51.796;13.006;2022-09-27T08:27:41;3.72;;;0.90;;
28862;SDS011;15994;51.796;13.006;2022-09-27T08:30:07;6.80;;;0.90;;
28862;SDS011;15994;51.796;13.006;2022-09-27T08:32:34;7.68;;;1.58;;
28862;SDS011;15994;51.796;13.006;2022-09-27T08:35:02;12.98;;;2.00;;
28862;SDS011;15994;51.796;13.006;2022-09-27T08:37:31;20.48;;;2.75;;
28862;SDS011;15994;51.796;13.006;2022-09-27T08:39:57;2.72;;;1.10;;
28862;SDS011;15994;51.796;13.006;2022-09-27T08:42:30;5.15;;;1.10;;
28862;SDS011;15994;51.796;13.006;2022-09-27T08:45:18;6.05;;;1.48;;
28862;SDS011;15994;51.796;13.006;2022-09-27T08:50:29;3.78;;;1.00;;
28862;SDS011;15994;51.796;13.006;2022-09-27T08:58:20;1.95;;;0.80;;
28862;SDS011;15994;51.796;13.006;2022-09-27T09:00:56;1.73;;;0.75;;
28862;SDS011;15994;51.796;13.006;2022-09-27T09:03:28;6.53;;;0.93;;
28862;SDS011;15994;51.796;13.006;2022-09-27T09:06:06;4.78;;;1.38;;
28862;SDS011;15994;51.796;13.006;2022-09-27T09:08:50;4.10;;;1.38;;
28862;SDS011;15994;51.796;13.006;2022-09-27T09:14:27;4.60;;;1.20;;
28862;SDS011;15994;51.796;13.006;2022-09-27T09:28:26;3.00;;;0.90;;
28862;SDS011;15994;51.796;13.006;2022-09-27T09:33:37;1.38;;;0.73;;
28862;SDS011;15994;51.796;13.006;2022-09-27T09:39:13;0.80;;;0.60;;
28862;SDS011;15994;51.796;13.006;2022-09-27T09:44:43;1.17;;;0.70;;
28862;SDS011;15994;51.796;13.006;2022-09-27T09:47:31;1.83;;;0.80;;
28862;SDS011;15994;51.796;13.006;2022-09-27T09:52:53;2.20;;;0.70;;
28862;SDS011;15994;51.796;13.006;2022-09-27T09:55:28;1.58;;;0.60;;
28862;SDS011;15994;51.796;13.006;2022-09-27T10:00:41;2.85;;;0.73;;
28862;SDS011;15994;51.796;13.006;2022-09-27T10:03:08;2.88;;;0.60;;
28862;SDS011;15994;51.796;13.006;2022-09-27T10:05:35;2.33;;;0.80;;
28862;SDS011;15994;51.796;13.006;2022-09-27T10:08:03;1.38;;;0.70;;
28862;SDS011;15994;51.796;13.006;2022-09-27T10:10:32;6.40;;;1.30;;
28862;SDS011;15994;51.796;13.006;2022-09-27T10:13:00;3.78;;;0.63;;
28862;SDS011;15994;51.796;13.006;2022-09-27T10:15:29;2.05;;;0.65;;
28862;SDS011;15994;51.796;13.006;2022-09-27T10:17:57;4.28;;;0.70;;
28862;SDS011;15994;51.796;13.006;2022-09-27T10:23:14;1.60;;;0.75;;
28862;SDS011;15994;51.796;13.006;2022-09-27T10:25:46;1.73;;;0.68;;
28862;SDS011;15994;51.796;13.006;2022-09-27T10:28:34;3.17;;;0.70;;
28862;SDS011;15994;51.796;13.006;2022-09-27T10:31:11;2.10;;;0.77;;
28862;SDS011;15994;51.796;13.006;2022-09-27T10:33:56;3.17;;;0.80;;
28862;SDS011;15994;51.796;13.006;2022-09-27T10:36:29;3.47;;;0.75;;
28862;SDS011;15994;51.796;13.006;2022-09-27T10:39:03;1.67;;;0.80;;
28862;SDS011;15994;51.796;13.006;2022-09-27T10:41:32;1.15;;;0.70;;
28862;SDS011;15994;51.796;13.006;2022-09-27T10:44:23;2.97;;;0.80;;
28862;SDS011;15994;51.796;13.006;2022-09-27T10:47:04;1.85;;;0.70;;
28862;SDS011;15994;51.796;13.006;2022-09-27T10:52:05;1.90;;;0.68;;
28862;SDS011;15994;51.796;13.006;2022-09-27T10:54:56;1.75;;;0.90;;
28862;SDS011;15994;51.796;13.006;2022-09-27T10:57:27;2.58;;;1.13;;
28862;SDS011;15994;51.796;13.006;2022-09-27T10:59:55;2.45;;;0.90;;
28862;SDS011;15994;51.796;13.006;2022-09-27T11:02:29;5.13;;;1.10;;
28862;SDS011;15994;51.796;13.006;2022-09-27T11:05:07;2.38;;;1.40;;
28862;SDS011;15994;51.796;13.006;2022-09-27T11:07:46;1.90;;;1.15;;
28862;SDS011;15994;51.796;13.006;2022-09-27T11:10:27;2.10;;;1.50;;
28862;SDS011;15994;51.796;13.006;2022-09-27T11:15:49;4.18;;;1.60;;
28862;SDS011;15994;51.796;13.006;2022-09-27T11:35:01;4.18;;;1.48;;
28862;SDS011;15994;51.796;13.006;2022-09-27T11:37:51;4.32;;;1.80;;
28862;SDS011;15994;51.796;13.006;2022-09-27T11:51:03;2.97;;;1.27;;
28862;SDS011;15994;51.796;13.006;2022-09-27T11:54:04;3.90;;;1.35;;
28862;SDS011;15994;51.796;13.006;2022-09-27T11:57:40;3.15;;;1.00;;
28862;SDS011;15994;51.796;13.006;2022-09-27T12:05:41;2.15;;;0.80;;
28862;SDS011;15994;51.796;13.006;2022-09-27T12:08:28;2.28;;;0.77;;
28862;SDS011;15994;51.796;13.006;2022-09-27T12:11:22;1.60;;;0.80;;
28862;SDS011;15994;51.796;13.006;2022-09-27T12:14:25;1.88;;;0.90;;
28862;SDS011;15994;51.796;13.006;2022-09-27T12:17:02;1.75;;;0.90;;
28862;SDS011;15994;51.796;13.006;2022-09-27T12:19:33;2.35;;;0.93;;
28862;SDS011;15994;51.796;13.006;2022-09-27T12:22:05;1.80;;;0.90;;
28862;SDS011;15994;51.796;13.006;2022-09-27T12:24:38;2.80;;;0.90;;
28862;SDS011;15994;51.796;13.006;2022-09-27T12:27:09;1.40;;;0.80;;
28862;SDS011;15994;51.796;13.006;2022-09-27T12:29:42;1.20;;;0.60;;
28862;SDS011;15994;51.796;13.006;2022-09-27T12:32:16;1.45;;;0.60;;
28862;SDS011;15994;51.796;13.006;2022-09-27T12:34:58;2.75;;;0.68;;
28862;SDS011;15994;51.796;13.006;2022-09-27T12:37:42;2.15;;;0.65;;
28862;SDS011;15994;51.796;13.006;2022-09-27T12:40:20;1.27;;;0.50;;
28862;SDS011;15994;51.796;13.006;2022-09-27T12:51:20;1.23;;;0.70;;
28862;SDS011;15994;51.796;13.006;2022-09-27T12:59:16;1.42;;;0.80;;
28862;SDS011;15994;51.796;13.006;2022-09-27T13:05:01;2.92;;;1.02;;
28862;SDS011;15994;51.796;13.006;2022-09-27T13:13:33;2.85;;;0.60;;
28862;SDS011;15994;51.796;13.006;2022-09-27T13:16:04;3.15;;;0.60;;
28862;SDS011;15994;51.796;13.006;2022-09-27T13:21:05;1.17;;;0.50;;
28862;SDS011;15994;51.796;13.006;2022-09-27T13:31:05;2.63;;;0.90;;
28862;SDS011;15994;51.796;13.006;2022-09-27T13:39:00;1.35;;;0.55;;
28862;SDS011;15994;51.796;13.006;2022-09-27T13:47:27;1.95;;;0.85;;
28862;SDS011;15994;51.796;13.006;2022-09-27T13:50:16;3.42;;;0.90;;
28862;SDS011;15994;51.796;13.006;2022-09-27T13:53:07;1.58;;;0.60;;
28862;SDS011;15994;51.796;13.006;2022-09-27T13:55:45;1.65;;;0.77;;
28862;SDS011;15994;51.796;13.006;2022-09-27T13:58:33;1.50;;;0.93;;
28862;SDS011;15994;51.796;13.006;2022-09-27T14:03:45;2.55;;;0.90;;
28862;SDS011;15994;51.796;13.006;2022-09-27T14:06:14;1.90;;;1.10;;
28862;SDS011;15994;51.796;13.006;2022-09-27T14:08:53;1.98;;;0.90;;
28862;SDS011;15994;51.796;13.006;2022-09-27T14:11:29;1.90;;;0.90;;
28862;SDS011;15994;51.796;13.006;2022-09-27T14:14:04;1.55;;;0.80;;
28862;SDS011;15994;51.796;13.006;2022-09-27T14:16:39;1.02;;;0.68;;
28862;SDS011;15994;51.796;13.006;2022-09-27T14:19:20;1.92;;;0.70;;
28862;SDS011;15994;51.796;13.006;2022-09-27T14:21:49;0.85;;;0.55;;
28862;SDS011;15994;51.796;13.006;2022-09-27T14:24:20;1.20;;;0.65;;
28862;SDS011;15994;51.796;13.006;2022-09-27T14:26:50;1.58;;;0.60;;
28862;SDS011;15994;51.796;13.006;2022-09-27T14:29:46;4.57;;;0.70;;
28862;SDS011;15994;51.796;13.006;2022-09-27T14:32:19;1.60;;;0.65;;
28862;SDS011;15994;51.796;13.006;2022-09-27T14:35:05;1.70;;;0.50;;
28862;SDS011;15994;51.796;13.006;2022-09-27T14:38:16;1.67;;;0.50;;
28862;SDS011;15994;51.796;13.006;2022-09-27T14:43:18;1.27;;;0.63;;
28862;SDS011;15994;51.796;13.006;2022-09-27T14:45:46;2.10;;;0.60;;
28862;SDS011;15994;51.796;13.006;2022-09-27T14:48:34;1.77;;;0.60;;
28862;SDS011;15994;51.796;13.006;2022-09-27T14:51:03;2.60;;;0.50;;
28862;SDS011;15994;51.796;13.006;2022-09-27T14:53:45;1.90;;;0.60;;
28862;SDS011;15994;51.796;13.006;2022-09-27T14:56:15;0.95;;;0.60;;
28862;SDS011;15994;51.796;13.006;2022-09-27T14:58:48;1.77;;;0.65;;
28862;SDS011;15994;51.796;13.006;2022-09-27T15:01:20;1.52;;;0.70;;
28862;SDS011;15994;51.796;13.006;2022-09-27T15:03:48;1.33;;;0.70;;
28862;SDS011;15994;51.796;13.006;2022-09-27T15:06:16;2.05;;;0.60;;
28862;SDS011;15994;51.796;13.006;2022-09-27T15:08:44;2.25;;;0.50;;
28862;SDS011;15994;51.796;13.006;2022-09-27T15:11:13;1.02;;;0.52;;
28862;SDS011;15994;51.796;13.006;2022-09-27T15:13:41;1.00;;;0.60;;
28862;SDS011;15994;51.796;13.006;2022-09-27T15:16:12;1.98;;;0.75;;
28862;SDS011;15994;51.796;13.006;2022-09-27T15:18:45;1.35;;;0.50;;
28862;SDS011;15994;51.796;13.006;2022-09-27T15:21:14;1.73;;;0.70;;
28862;SDS011;15994;51.796;13.006;2022-09-27T15:23:53;1.73;;;0.63;;
28862;SDS011;15994;51.796;13.006;2022-09-27T15:26:23;1.58;;;0.77;;
28862;SDS011;15994;51.796;13.006;2022-09-27T15:28:59;1.33;;;0.80;;
28862;SDS011;15994;51.796;13.006;2022-09-27T15:31:30;3.90;;;0.70;;
28862;SDS011;15994;51.796;13.006;2022-09-27T15:34:01;2.60;;;0.70;;
28862;SDS011;15994;51.796;13.006;2022-09-27T15:39:34;1.58;;;0.70;;
28862;SDS011;15994;51.796;13.006;2022-09-27T15:49:58;2.22;;;0.80;;
28862;SDS011;15994;51.796;13.006;2022-09-27T15:55:11;2.05;;;0.80;;
28862;SDS011;15994;51.796;13.006;2022-09-27T15:57:39;1.25;;;0.70;;
28862;SDS011;15994;51.796;13.006;2022-09-27T16:00:09;1.48;;;0.73;;
28862;SDS011;15994;51.796;13.006;2022-09-27T16:02:40;1.77;;;0.80;;
28862;SDS011;15994;51.796;13.006;2022-09-27T16:05:07;1.85;;;0.82;;
28862;SDS011;15994;51.796;13.006;2022-09-27T16:07:34;43.50;;;26.08;;
28862;SDS011;15994;51.796;13.006;2022-09-27T16:10:01;122.85;;;64.03;;
28862;SDS011;15994;51.796;13.006;2022-09-27T16:12:30;185.02;;;82.60;;
28862;SDS011;15994;51.796;13.006;2022-09-27T16:14:57;45.28;;;25.35;;
28862;SDS011;15994;51.796;13.006;2022-09-27T16:17:23;15.48;;;10.13;;
28862;SDS011;15994;51.796;13.006;2022-09-27T16:19:50;3.90;;;2.80;;
28862;SDS011;15994;51.796;13.006;2022-09-27T16:22:16;3.03;;;1.42;;
28862;SDS011;15994;51.796;13.006;2022-09-27T16:24:43;4.13;;;3.28;;
28862;SDS011;15994;51.796;13.006;2022-09-27T16:27:10;2.33;;;1.90;;
28862;SDS011;15994;51.796;13.006;2022-09-27T16:29:36;3.10;;;2.00;;
28862;SDS011;15994;51.796;13.006;2022-09-27T16:32:03;3.28;;;1.52;;
28862;SDS011;15994;51.796;13.006;2022-09-27T16:34:30;3.40;;;1.63;;
28862;SDS011;15994;51.796;13.006;2022-09-27T16:36:57;3.70;;;1.60;;
28862;SDS011;15994;51.796;13.006;2022-09-27T16:39:23;5.20;;;1.60;;
28862;SDS011;15994;51.796;13.006;2022-09-27T16:41:50;4.90;;;1.92;;
28862;SDS011;15994;51.796;13.006;2022-09-27T16:44:17;3.60;;;1.60;;
28862;SDS011;15994;51.796;13.006;2022-09-27T16:46:43;4.10;;;1.63;;
28862;SDS011;15994;51.796;13.006;2022-09-27T16:49:11;3.45;;;2.08;;
28862;SDS011;15994;51.796;13.006;2022-09-27T16:51:51;4.63;;;1.80;;
28862;SDS011;15994;51.796;13.006;2022-09-27T16:54:27;3.75;;;2.00;;
28862;SDS011;15994;51.796;13.006;2022-09-27T16:56:57;4.30;;;1.70;;
28862;SDS011;15994;51.796;13.006;2022-09-27T16:59:24;2.83;;;1.98;;
28862;SDS011;15994;51.796;13.006;2022-09-27T17:01:51;4.40;;;1.98;;
28862;SDS011;15994;51.796;13.006;2022-09-27T17:04:20;2.95;;;1.65;;
28862;SDS011;15994;51.796;13.006;2022-09-27T17:06:47;4.22;;;2.10;;
28862;SDS011;15994;51.796;13.006;2022-09-27T17:09:13;4.35;;;2.13;;
28862;SDS011;15994;51.796;13.006;2022-09-27T17:11:40;4.90;;;1.90;;
28862;SDS011;15994;51.796;13.006;2022-09-27T17:14:08;5.28;;;2.40;;
28862;SDS011;15994;51.796;13.006;2022-09-27T17:16:40;4.07;;;2.08;;
28862;SDS011;15994;51.796;13.006;2022-09-27T17:19:07;4.00;;;2.80;;
28862;SDS011;15994;51.796;13.006;2022-09-27T17:21:35;3.33;;;1.90;;
28862;SDS011;15994;51.796;13.006;2022-09-27T17:24:01;4.28;;;1.88;;
28862;SDS011;15994;51.796;13.006;2022-09-27T17:26:28;4.22;;;2.15;;
28862;SDS011;15994;51.796;13.006;2022-09-27T17:28:56;4.72;;;2.25;;
28862;SDS011;15994;51.796;13.006;2022-09-27T17:31:25;3.50;;;2.58;;
28862;SDS011;15994;51.796;13.006;2022-09-27T17:33:53;5.97;;;2.55;;
28862;SDS011;15994;51.796;13.006;2022-09-27T17:36:20;3.17;;;2.17;;
28862;SDS011;15994;51.796;13.006;2022-09-27T17:38:49;5.90;;;2.92;;
28862;SDS011;15994;51.796;13.006;2022-09-27T17:41:18;5.63;;;2.85;;
28862;SDS011;15994;51.796;13.006;2022-09-27T17:43:47;4.68;;;3.30;;
28862;SDS011;15994;51.796;13.006;2022-09-27T17:46:17;8.32;;;2.08;;
28862;SDS011;15994;51.796;13.006;2022-09-27T17:48:45;5.72;;;1.92;;
28862;SDS011;15994;51.796;13.006;2022-09-27T17:51:29;4.82;;;1.90;;
28862;SDS011;15994;51.796;13.006;2022-09-27T17:53:56;3.40;;;2.05;;